createdAt,value
2023-04-20T00:00:36.971Z,7.74
2023-04-20T00:03:40.282Z,8.55
2023-04-20T00:06:47.338Z,10.19
2023-04-20T00:09:54.033Z,11.76
2023-04-20T00:13:00.228Z,12.71
2023-04-20T00:16:04.219Z,12.90
2023-04-20T00:19:11.340Z,12.25
2023-04-20T00:22:26.309Z,11.64
2023-04-20T00:25:33.087Z,9.97
2023-04-20T00:28:40.013Z,8.57
2023-04-20T00:31:44.422Z,6.84
2023-04-20T00:34:50.764Z,5.45
2023-04-20T00:37:57.589Z,4.08
2023-04-20T00:41:09.970Z,3.10
2023-04-20T00:44:14.976Z,2.30
2023-04-20T00:47:19.079Z,1.70
2023-04-20T00:50:23.087Z,1.19
2023-04-20T00:53:29.581Z,0.66
2023-04-20T00:56:33.576Z,0.02
2023-04-20T00:59:37.547Z,-0.53
2023-04-20T01:02:41.047Z,-0.90
2023-04-20T01:05:45.294Z,-1.19
2023-04-20T01:08:52.286Z,-1.52
2023-04-20T01:11:58.211Z,-1.71
2023-04-20T01:15:03.750Z,-1.66
2023-04-20T01:18:08.657Z,-1.63
2023-04-20T01:21:15.720Z,-1.33
2023-04-20T01:24:22.731Z,-1.06
2023-04-20T01:27:28.073Z,-1.04
2023-04-20T01:30:33.670Z,-1.02
2023-04-20T01:33:41.789Z,-0.89
2023-04-20T01:36:46.016Z,-0.82
2023-04-20T01:39:50.145Z,-0.80
2023-04-20T01:42:57.312Z,-0.67
2023-04-20T01:46:03.777Z,-0.57
2023-04-20T01:49:08.375Z,-0.71
2023-04-20T01:52:13.575Z,-0.69
2023-04-20T01:55:19.942Z,-0.76
2023-04-20T01:58:25.171Z,-0.78
2023-04-20T02:01:29.211Z,-0.80
2023-04-20T02:04:36.560Z,-0.77
2023-04-20T02:07:40.048Z,-0.76
2023-04-20T02:10:43.845Z,-0.76
2023-04-20T02:13:47.494Z,-0.82
2023-04-20T02:16:54.385Z,-0.73
2023-04-20T02:19:58.405Z,-0.60
2023-04-20T02:23:04.057Z,-0.65
2023-04-20T02:26:07.825Z,-0.65
2023-04-20T02:29:11.211Z,-0.72
2023-04-20T02:32:15.916Z,-0.64
2023-04-20T02:35:22.537Z,-0.49
2023-04-20T02:38:27.059Z,-0.42
2023-04-20T02:41:31.304Z,-0.28
2023-04-20T02:44:34.818Z,-0.34
2023-04-20T02:47:39.165Z,-0.13
2023-04-20T02:50:45.240Z,-0.10
2023-04-20T02:53:54.798Z,-0.02
2023-04-20T02:57:05.195Z,0.10
2023-04-20T03:00:10.299Z,0.12
2023-04-20T03:03:31.100Z,0.09
2023-04-20T03:06:38.809Z,0.15
2023-04-20T03:09:45.017Z,0.35
2023-04-20T03:12:57.902Z,0.46
2023-04-20T03:16:09.490Z,0.60
2023-04-20T03:19:19.614Z,0.84
2023-04-20T03:22:23.735Z,0.87
2023-04-20T03:25:31.355Z,0.81
2023-04-20T03:28:35.853Z,0.77
2023-04-20T03:31:39.599Z,0.93
2023-04-20T03:34:43.826Z,0.80
2023-04-20T03:37:47.230Z,0.73
2023-04-20T03:40:50.498Z,0.83
2023-04-20T03:43:54.086Z,0.88
2023-04-20T03:46:57.219Z,0.80
2023-04-20T03:50:00.608Z,0.77
2023-04-20T03:53:03.946Z,0.96
2023-04-20T03:56:08.542Z,1.20
2023-04-20T03:59:12.676Z,1.34
2023-04-20T04:02:18.977Z,1.18
2023-04-20T04:05:23.797Z,0.95
2023-04-20T04:08:27.474Z,0.73
2023-04-20T04:11:31.672Z,0.80
2023-04-20T04:14:36.253Z,0.82
2023-04-20T04:17:40.359Z,0.83
2023-04-20T04:20:43.612Z,0.39
2023-04-20T04:23:48.437Z,0.29
2023-04-20T04:27:14.887Z,0.46
2023-04-20T04:30:28.283Z,0.54
2023-04-20T04:33:34.820Z,0.64
2023-04-20T04:36:38.902Z,0.76
2023-04-20T04:39:45.127Z,0.79
2023-04-20T04:42:57.412Z,0.94
2023-04-20T04:46:07.435Z,0.90
2023-04-20T04:49:11.287Z,0.99
2023-04-20T04:52:16.817Z,1.09
2023-04-20T04:55:20.452Z,1.12
2023-04-20T04:58:23.707Z,1.08
2023-04-20T05:01:26.996Z,0.81
2023-04-20T05:04:30.590Z,0.67
2023-04-20T05:07:33.872Z,0.61
2023-04-20T05:10:37.216Z,0.48
2023-04-20T05:13:40.372Z,0.33
2023-04-20T05:16:43.776Z,0.24
2023-04-20T05:19:47.291Z,0.16
2023-04-20T05:22:50.528Z,0.13
2023-04-20T05:25:53.649Z,0.03
2023-04-20T05:28:57.151Z,-0.01
2023-04-20T05:32:00.345Z,0.00
2023-04-20T05:35:04.449Z,0.10
2023-04-20T05:38:08.116Z,0.32
2023-04-20T05:41:11.366Z,0.36
2023-04-20T05:44:14.729Z,0.44
2023-04-20T05:47:17.997Z,0.51
2023-04-20T05:50:21.576Z,0.56
2023-04-20T05:53:24.761Z,0.43
2023-04-20T05:56:28.420Z,0.54
2023-04-20T05:59:32.009Z,0.68
2023-04-20T06:02:35.326Z,0.74
2023-04-20T06:05:38.681Z,0.69
2023-04-20T06:08:42.166Z,0.69
2023-04-20T06:11:45.447Z,0.71
2023-04-20T06:14:48.616Z,0.84
2023-04-20T06:17:51.842Z,0.93
2023-04-20T06:20:55.280Z,0.92
2023-04-20T06:23:58.380Z,0.87
2023-04-20T06:27:02.857Z,0.92
2023-04-20T06:30:07.009Z,1.02
2023-04-20T06:33:12.379Z,1.04
2023-04-20T06:36:15.874Z,1.07
2023-04-20T06:39:19.499Z,1.21
2023-04-20T06:42:23.582Z,1.27
2023-04-20T06:45:27.023Z,1.22
2023-04-20T06:48:32.700Z,1.34
2023-04-20T06:51:36.385Z,1.45
2023-04-20T06:54:39.556Z,1.56
2023-04-20T06:57:44.444Z,1.77
2023-04-20T07:00:48.350Z,1.79
2023-04-20T07:03:52.739Z,1.58
2023-04-20T07:06:56.046Z,1.58
2023-04-20T07:09:59.491Z,1.77
2023-04-20T07:13:02.691Z,1.96
2023-04-20T07:16:07.191Z,2.08
2023-04-20T07:19:10.522Z,2.12
2023-04-20T07:22:13.690Z,2.15
2023-04-20T07:25:18.419Z,2.14
2023-04-20T07:28:21.691Z,2.09
2023-04-20T07:31:24.994Z,2.05
2023-04-20T07:34:28.224Z,1.98
2023-04-20T07:37:32.620Z,2.06
2023-04-20T07:40:35.821Z,2.13
2023-04-20T07:43:39.847Z,2.12
2023-04-20T07:46:43.026Z,2.17
2023-04-20T07:49:46.487Z,2.36
2023-04-20T07:52:49.598Z,2.38
2023-04-20T07:55:52.745Z,2.32
2023-04-20T07:58:56.466Z,2.23
2023-04-20T08:02:01.953Z,1.95
2023-04-20T08:05:06.038Z,1.74
2023-04-20T08:08:09.495Z,1.59
2023-04-20T08:11:13.608Z,1.44
2023-04-20T08:14:17.119Z,1.38
2023-04-20T08:17:20.813Z,1.37
2023-04-20T08:20:24.187Z,1.39
2023-04-20T08:23:30.627Z,1.40
2023-04-20T08:26:34.377Z,1.41
2023-04-20T08:29:38.963Z,1.34
2023-04-20T08:32:42.178Z,1.36
2023-04-20T08:35:45.502Z,1.36
2023-04-20T08:38:56.099Z,1.27
2023-04-20T08:41:59.504Z,1.24
2023-04-20T08:45:02.804Z,1.08
2023-04-20T08:48:11.252Z,0.93
2023-04-20T08:51:17.813Z,0.84
2023-04-20T08:54:22.184Z,0.83
2023-04-20T08:57:27.763Z,0.82
2023-04-20T09:00:31.355Z,0.80
2023-04-20T09:03:39.322Z,0.66
2023-04-20T09:06:49.845Z,0.63
2023-04-20T09:09:57.631Z,0.63
2023-04-20T09:13:00.867Z,0.51
2023-04-20T09:16:14.380Z,0.42
2023-04-20T09:19:25.890Z,0.42
2023-04-20T09:22:33.715Z,0.43
2023-04-20T09:25:37.120Z,0.31
2023-04-20T09:28:40.568Z,0.26
2023-04-20T09:31:43.800Z,0.25
2023-04-20T09:34:46.975Z,0.27
2023-04-20T09:37:50.376Z,0.18
2023-04-20T09:40:53.721Z,0.19
2023-04-20T09:43:57.458Z,0.06
2023-04-20T09:47:00.834Z,-0.03
2023-04-20T09:50:19.422Z,-0.06
2023-04-20T09:53:27.232Z,-0.12
2023-04-20T09:56:31.335Z,-0.18
2023-04-20T09:59:34.793Z,-0.25
2023-04-20T10:02:38.783Z,-0.32
2023-04-20T10:05:43.574Z,-0.39
2023-04-20T10:08:47.166Z,-0.51
2023-04-20T10:11:54.037Z,-0.64
2023-04-20T10:14:58.566Z,-0.74
2023-04-20T10:18:01.951Z,-0.74
2023-04-20T10:21:10.478Z,-0.85
2023-04-20T10:24:13.826Z,-0.88
2023-04-20T10:27:23.759Z,-0.97
2023-04-20T10:30:28.505Z,-0.99
2023-04-20T10:33:31.582Z,-0.99
2023-04-20T10:36:37.816Z,-1.11
2023-04-20T10:39:48.518Z,-1.20
2023-04-20T10:42:51.937Z,-1.35
2023-04-20T10:45:55.197Z,-1.47
2023-04-20T10:49:02.172Z,-1.58
2023-04-20T10:52:05.606Z,-1.71
2023-04-20T10:55:23.230Z,-1.80
2023-04-20T10:58:26.673Z,-1.91
2023-04-20T11:01:33.436Z,-1.97
2023-04-20T11:04:37.808Z,-2.04
2023-04-20T11:07:54.960Z,-2.12
2023-04-20T11:10:58.157Z,-2.20
2023-04-20T11:14:12.047Z,-2.33
2023-04-20T11:17:15.223Z,-2.49
2023-04-20T11:20:19.236Z,-2.58
2023-04-20T11:23:23.979Z,-2.64
2023-04-20T11:26:37.671Z,-2.75
2023-04-20T11:29:41.190Z,-2.84
2023-04-20T11:32:44.539Z,-2.88
2023-04-20T11:35:48.073Z,-2.89
2023-04-20T11:38:51.586Z,-2.97
2023-04-20T11:41:55.218Z,-3.04
2023-04-20T11:44:58.461Z,-3.08
2023-04-20T11:48:01.971Z,-3.09
2023-04-20T11:51:05.381Z,-3.09
2023-04-20T11:54:08.570Z,-3.06
2023-04-20T11:57:12.203Z,-3.09
2023-04-20T12:00:15.994Z,-3.12
2023-04-20T12:03:19.103Z,-3.11
2023-04-20T12:06:23.023Z,-3.14
2023-04-20T12:09:31.119Z,-3.13
2023-04-20T12:12:34.732Z,-3.13
2023-04-20T12:15:38.157Z,-3.09
2023-04-20T12:18:42.091Z,-3.11
2023-04-20T12:21:47.342Z,-3.13
2023-04-20T12:24:50.506Z,-3.13
2023-04-20T12:27:53.602Z,-3.13
2023-04-20T12:30:56.875Z,-3.12
2023-04-20T12:34:01.010Z,-3.12
2023-04-20T12:37:04.195Z,-3.13
2023-04-20T12:40:08.640Z,-3.18
2023-04-20T12:43:11.893Z,-3.21
2023-04-20T12:46:15.238Z,-3.24
2023-04-20T12:49:19.176Z,-3.24
2023-04-20T12:52:22.904Z,-3.23
2023-04-20T12:55:27.320Z,-3.30
2023-04-20T12:58:30.748Z,-3.37
2023-04-20T13:01:34.229Z,-3.40
2023-04-20T13:04:37.743Z,-3.50
2023-04-20T13:07:41.248Z,-3.54
2023-04-20T13:10:44.508Z,-3.61
2023-04-20T13:13:47.866Z,-3.70
2023-04-20T13:16:52.355Z,-3.76
2023-04-20T13:19:57.726Z,-3.83
2023-04-20T13:23:02.041Z,-3.86
2023-04-20T13:26:06.485Z,-3.92
2023-04-20T13:29:09.728Z,-4.00
2023-04-20T13:32:12.945Z,-4.08
2023-04-20T13:35:17.240Z,-4.15
2023-04-20T13:38:20.466Z,-4.21
2023-04-20T13:41:27.268Z,-4.27
2023-04-20T13:44:30.471Z,-4.35
2023-04-20T13:47:34.332Z,-4.36
2023-04-20T13:50:37.635Z,-4.43
2023-04-20T13:53:40.927Z,-4.44
2023-04-20T13:56:44.803Z,-4.48
2023-04-20T13:59:48.298Z,-4.54
2023-04-20T14:02:51.663Z,-4.59
2023-04-20T14:05:55.059Z,-4.62
2023-04-20T14:08:58.264Z,-4.64
2023-04-20T14:12:03.108Z,-4.66
2023-04-20T14:15:06.834Z,-4.69
2023-04-20T14:18:10.062Z,-4.72
2023-04-20T14:21:13.253Z,-4.73
2023-04-20T14:24:16.603Z,-4.78
2023-04-20T14:27:20.152Z,-4.82
2023-04-20T14:30:23.898Z,-4.87
2023-04-20T14:33:27.571Z,-4.87
2023-04-20T14:36:31.521Z,-4.93
2023-04-20T14:39:34.811Z,-4.98
2023-04-20T14:42:38.313Z,-5.02
2023-04-20T14:45:42.462Z,-5.05
2023-04-20T14:48:46.871Z,-5.07
2023-04-20T14:51:51.696Z,-5.12
2023-04-20T14:54:54.603Z,-5.09
2023-04-20T14:58:00.510Z,-5.15
2023-04-20T15:01:04.276Z,-5.17
2023-04-20T15:04:08.217Z,-5.23
2023-04-20T15:07:11.844Z,-5.21
2023-04-20T15:10:15.340Z,-5.23
2023-04-20T15:13:18.456Z,-5.27
2023-04-20T15:16:21.728Z,-5.31
2023-04-20T15:19:24.933Z,-5.34
2023-04-20T15:22:28.046Z,-5.37
2023-04-20T15:25:31.750Z,-5.40
2023-04-20T15:28:34.964Z,-5.41
2023-04-20T15:31:38.296Z,-5.42
2023-04-20T15:34:41.749Z,-5.44
2023-04-20T15:37:47.110Z,-5.47
2023-04-20T15:40:52.580Z,-5.51
2023-04-20T15:43:55.962Z,-5.54
2023-04-20T15:46:59.215Z,-5.53
2023-04-20T15:50:03.858Z,-5.59
2023-04-20T15:53:07.934Z,-5.59
2023-04-20T15:56:11.207Z,-5.59
2023-04-20T15:59:14.553Z,-5.61
2023-04-20T16:02:17.933Z,-5.63
2023-04-20T16:05:22.142Z,-5.65
2023-04-20T16:08:25.300Z,-5.66
2023-04-20T16:11:28.511Z,-5.68
2023-04-20T16:14:32.250Z,-5.72
2023-04-20T16:17:35.411Z,-5.78
2023-04-20T16:20:40.054Z,-5.78
2023-04-20T16:23:44.573Z,-5.77
2023-04-20T16:26:47.708Z,-5.81
2023-04-20T16:29:50.973Z,-5.85
2023-04-20T16:32:54.192Z,-5.92
2023-04-20T16:35:57.421Z,-5.95
2023-04-20T16:39:03.851Z,-6.05
2023-04-20T16:42:07.045Z,-6.14
2023-04-20T16:45:10.300Z,-6.21
2023-04-20T16:48:13.478Z,-6.26
2023-04-20T16:51:16.601Z,-6.27
2023-04-20T16:54:19.910Z,-6.24
2023-04-20T16:57:23.903Z,-6.21
2023-04-20T17:00:31.386Z,-6.18
2023-04-20T17:03:35.058Z,-6.20
2023-04-20T17:06:38.416Z,-6.21
2023-04-20T17:09:41.572Z,-6.21
2023-04-20T17:12:44.880Z,-6.24
2023-04-20T17:15:48.263Z,-6.27
2023-04-20T17:18:52.725Z,-6.29
2023-04-20T17:21:55.884Z,-6.33
2023-04-20T17:24:59.084Z,-6.34
2023-04-20T17:28:03.325Z,-6.35
2023-04-20T17:31:06.874Z,-6.35
2023-04-20T17:34:11.197Z,-6.34
2023-04-20T17:37:14.818Z,-6.34
2023-04-20T17:40:18.132Z,-6.34
2023-04-20T17:43:21.324Z,-6.38
2023-04-20T17:46:24.674Z,-6.38
2023-04-20T17:49:29.364Z,-6.37
2023-04-20T17:52:32.664Z,-6.42
2023-04-20T17:55:36.446Z,-6.49
2023-04-20T17:58:39.579Z,-6.65
2023-04-20T18:01:42.962Z,-6.84
2023-04-20T18:04:46.385Z,-7.01
2023-04-20T18:07:49.821Z,-7.07
2023-04-20T18:10:53.110Z,-7.06
2023-04-20T18:13:56.250Z,-7.07
2023-04-20T18:16:59.388Z,-7.09
2023-04-20T18:20:02.689Z,-7.10
2023-04-20T18:23:05.863Z,-7.18
2023-04-20T18:26:14.397Z,-7.25
2023-04-20T18:29:17.891Z,-7.37
2023-04-20T18:32:21.583Z,-7.42
2023-04-20T18:35:24.808Z,-7.38
2023-04-20T18:38:28.093Z,-7.34
2023-04-20T18:41:31.291Z,-7.26
2023-04-20T18:44:34.514Z,-7.17
2023-04-20T18:47:37.694Z,-7.12
2023-04-20T18:50:40.910Z,-7.06
2023-04-20T18:53:44.104Z,-7.05
2023-04-20T18:56:47.432Z,-7.06
2023-04-20T18:59:50.590Z,-7.06
2023-04-20T19:02:53.977Z,-7.10
2023-04-20T19:05:57.474Z,-7.12
2023-04-20T19:09:02.099Z,-7.13
2023-04-20T19:12:05.304Z,-7.12
2023-04-20T19:15:09.632Z,-7.18
2023-04-20T19:18:12.811Z,-7.22
2023-04-20T19:21:21.961Z,-7.26
2023-04-20T19:24:25.306Z,-7.29
2023-04-20T19:27:28.896Z,-7.31
2023-04-20T19:30:32.058Z,-7.32
2023-04-20T19:33:35.243Z,-7.36
2023-04-20T19:36:38.364Z,-7.35
2023-04-20T19:39:41.692Z,-7.34
2023-04-20T19:42:45.518Z,-7.35
2023-04-20T19:45:48.944Z,-7.39
2023-04-20T19:48:52.389Z,-7.46
2023-04-20T19:51:55.744Z,-7.50
2023-04-20T19:54:59.000Z,-7.50
2023-04-20T19:58:02.402Z,-7.53
2023-04-20T20:01:06.653Z,-7.55
2023-04-20T20:04:10.053Z,-7.60
2023-04-20T20:07:14.094Z,-7.66
2023-04-20T20:10:17.266Z,-7.70
2023-04-20T20:13:20.583Z,-7.70
2023-04-20T20:16:23.811Z,-7.73
2023-04-20T20:19:28.544Z,-7.80
2023-04-20T20:22:31.356Z,-7.78
2023-04-20T20:25:35.365Z,-7.80
2023-04-20T20:28:38.884Z,-7.84
2023-04-20T20:31:42.216Z,-7.86
2023-04-20T20:34:46.590Z,-7.91
2023-04-20T20:37:49.798Z,-7.91
2023-04-20T20:40:54.139Z,-7.92
2023-04-20T20:43:58.633Z,-7.92
2023-04-20T20:47:01.969Z,-7.92
2023-04-20T20:50:05.681Z,-7.92
2023-04-20T20:53:09.584Z,-7.91
2023-04-20T20:56:12.793Z,-7.93
2023-04-20T20:59:16.251Z,-7.95
2023-04-20T21:02:19.634Z,-7.99
2023-04-20T21:05:24.494Z,-8.02
2023-04-20T21:08:27.779Z,-8.04
2023-04-20T21:11:31.045Z,-8.03
2023-04-20T21:14:34.311Z,-8.11
2023-04-20T21:17:37.667Z,-8.16
2023-04-20T21:20:41.130Z,-8.13
2023-04-20T21:23:44.440Z,-8.09
2023-04-20T21:26:47.712Z,-8.08
2023-04-20T21:29:50.905Z,-8.06
2023-04-20T21:32:54.066Z,-8.04
2023-04-20T21:35:58.916Z,-7.99
2023-04-20T21:39:02.331Z,-7.92
2023-04-20T21:42:05.770Z,-7.81
2023-04-20T21:45:09.707Z,-7.77
2023-04-20T21:48:13.106Z,-7.71
2023-04-20T21:51:17.554Z,-7.66
2023-04-20T21:54:20.897Z,-7.64
2023-04-20T21:57:24.210Z,-7.61
2023-04-20T22:00:27.550Z,-7.62
2023-04-20T22:03:32.104Z,-7.64
2023-04-20T22:06:35.497Z,-7.54
2023-04-20T22:09:39.052Z,-7.47
2023-04-20T22:12:43.443Z,-7.37
2023-04-20T22:15:48.246Z,-7.32
2023-04-20T22:18:51.766Z,-6.93
2023-04-20T22:21:55.253Z,-4.80
2023-04-20T22:25:02.465Z,-1.88
2023-04-20T22:28:10.678Z,0.88
2023-04-20T22:31:15.047Z,2.90
2023-04-20T22:34:18.420Z,4.30
2023-04-20T22:37:21.794Z,5.77
2023-04-20T22:40:25.063Z,6.84
2023-04-20T22:43:28.454Z,7.51
2023-04-20T22:46:31.804Z,8.21
2023-04-20T22:49:36.449Z,8.73
2023-04-20T22:52:40.265Z,9.34
2023-04-20T22:55:43.686Z,9.78
2023-04-20T22:58:46.892Z,10.11
2023-04-20T23:01:53.622Z,10.58
2023-04-20T23:04:57.756Z,11.17
2023-04-20T23:08:01.466Z,11.69
2023-04-20T23:11:05.598Z,11.90
2023-04-20T23:14:10.013Z,12.48
2023-04-20T23:17:13.787Z,12.59
2023-04-20T23:20:17.299Z,12.92
2023-04-20T23:23:20.555Z,13.22
2023-04-20T23:26:24.488Z,13.85
2023-04-20T23:29:27.793Z,14.15
2023-04-20T23:32:31.283Z,14.43
2023-04-20T23:35:34.437Z,15.23
2023-04-20T23:38:38.001Z,15.71
2023-04-20T23:41:41.354Z,16.11
2023-04-20T23:44:44.606Z,16.14
2023-04-20T23:47:48.080Z,15.91
2023-04-20T23:50:51.284Z,16.32
2023-04-20T23:53:54.523Z,16.68
2023-04-20T23:56:57.757Z,16.77
